Terminal Aerodrome Forecast
Issued by NWS Upton, NY

Home | Current Version | Previous Version | Text Only | Print | Product List | Glossary On
Versions: 1 2 3 4 5 6 7 8 9 10 11 12 13 14 15 16 17 18 19 20 21 22 23 24 25 26 27 28 29 30 31 32 33
000
FTUS41 KOKX 230500
TAFLGA
TAF
KLGA 230528Z 2306/2406 01020G30KT P6SM BKN015
      TEMPO 2306/2309 5SM -RA BR SCT015 BKN035
     FM230900 36020G30KT 6SM BR VCSH BKN010
     FM231400 34020G28KT P6SM VCSH BKN015
     FM231800 33019G27KT P6SM BKN025 OVC035
     FM232300 33015G24KT P6SM BKN040 BKN080
     FM240400 33013G21KT P6SM BKN050 BKN080=

USA.gov is the U.S. government's official web portal to all federal, state and local government web resources and services.